Anvil, Mississippi
Current Conditions -  °F | °C
As of 1:55 PM on Thursday 23 Oct 2014 (Local Time) from KCRX Reporting Station
Clear Clear  
Wind Chill: 64°   Ceiling: Unl
Heat Index: 64°   Visibility: 10mi
Dew Point: 45°   Wind: 6mph
Humidity: 49%   Direction: 310°NW
Pressure: 30.12"   Gusts: NA
Location:  34.9009°N, 88.9211°W
Report Text: KCRX 231855Z AUTO 31005KT 10SM CLR 18/07 A3012 RMK AO2
Loading
Personal Weather Stations






























Interactive Weather Map
Tropical Storm Tracking
New forecast layout! Learn more

10-Day Weather Forecast

Advertisements
Track Severe Weather on mobile